sensor_id;sensor_type;location;lat;lon;timestamp;temperature;humidity
4596;DHT22;2310;49.978;8.742;2023-03-29T00:02:54;9.90;99.90
4596;DHT22;2310;49.978;8.742;2023-03-29T00:06:57;9.90;99.90
4596;DHT22;2310;49.978;8.742;2023-03-29T00:11:02;9.80;99.90
4596;DHT22;2310;49.978;8.742;2023-03-29T00:15:06;9.80;99.90
4596;DHT22;2310;49.978;8.742;2023-03-29T00:19:09;9.80;99.90
4596;DHT22;2310;49.978;8.742;2023-03-29T00:23:14;9.80;99.90
4596;DHT22;2310;49.978;8.742;2023-03-29T00:27:16;9.70;99.90
4596;DHT22;2310;49.978;8.742;2023-03-29T00:31:18;9.50;99.90
4596;DHT22;2310;49.978;8.742;2023-03-29T00:35:21;9.40;99.90
4596;DHT22;2310;49.978;8.742;2023-03-29T00:39:27;9.50;99.90
4596;DHT22;2310;49.978;8.742;2023-03-29T00:43:49;9.70;99.90
4596;DHT22;2310;49.978;8.742;2023-03-29T00:47:47;9.80;99.90
4596;DHT22;2310;49.978;8.742;2023-03-29T00:51:49;9.70;99.90
4596;DHT22;2310;49.978;8.742;2023-03-29T00:56:04;9.60;99.90
4596;DHT22;2310;49.978;8.742;2023-03-29T01:00:08;9.60;99.90
4596;DHT22;2310;49.978;8.742;2023-03-29T01:08:34;9.50;99.90
4596;DHT22;2310;49.978;8.742;2023-03-29T01:12:44;9.50;99.90
4596;DHT22;2310;49.978;8.742;2023-03-29T01:16:42;9.50;99.90
4596;DHT22;2310;49.978;8.742;2023-03-29T01:33:36;9.30;99.90
4596;DHT22;2310;49.978;8.742;2023-03-29T01:37:42;9.20;99.90
4596;DHT22;2310;49.978;8.742;2023-03-29T01:42:05;9.00;99.90
4596;DHT22;2310;49.978;8.742;2023-03-29T01:50:48;9.30;99.90
4596;DHT22;2310;49.978;8.742;2023-03-29T01:54:55;9.50;99.90
4596;DHT22;2310;49.978;8.742;2023-03-29T01:59:04;9.50;99.90
4596;DHT22;2310;49.978;8.742;2023-03-29T02:03:11;9.20;99.90
4596;DHT22;2310;49.978;8.742;2023-03-29T02:07:17;9.00;99.90
4596;DHT22;2310;49.978;8.742;2023-03-29T02:11:20;9.10;99.90
4596;DHT22;2310;49.978;8.742;2023-03-29T02:15:23;9.20;99.90
4596;DHT22;2310;49.978;8.742;2023-03-29T02:19:25;8.90;99.90
4596;DHT22;2310;49.978;8.742;2023-03-29T02:23:37;8.90;99.90
4596;DHT22;2310;49.978;8.742;2023-03-29T02:27:40;8.90;99.90
4596;DHT22;2310;49.978;8.742;2023-03-29T02:31:45;9.00;99.90
4596;DHT22;2310;49.978;8.742;2023-03-29T02:35:54;8.70;99.90
4596;DHT22;2310;49.978;8.742;2023-03-29T02:39:57;8.60;99.90
4596;DHT22;2310;49.978;8.742;2023-03-29T02:44:01;8.60;99.90
4596;DHT22;2310;49.978;8.742;2023-03-29T02:48:07;8.80;99.90
4596;DHT22;2310;49.978;8.742;2023-03-29T02:52:13;8.90;99.90
4596;DHT22;2310;49.978;8.742;2023-03-29T02:56:18;9.00;99.90
4596;DHT22;2310;49.978;8.742;2023-03-29T03:00:20;9.00;99.90
4596;DHT22;2310;49.978;8.742;2023-03-29T03:04:23;9.00;99.90
4596;DHT22;2310;49.978;8.742;2023-03-29T03:08:25;8.70;99.90
4596;DHT22;2310;49.978;8.742;2023-03-29T03:12:27;8.80;99.90
4596;DHT22;2310;49.978;8.742;2023-03-29T03:16:29;8.90;99.90
4596;DHT22;2310;49.978;8.742;2023-03-29T03:20:31;8.80;99.90
4596;DHT22;2310;49.978;8.742;2023-03-29T03:24:33;8.90;99.90
4596;DHT22;2310;49.978;8.742;2023-03-29T03:28:36;8.90;99.90
4596;DHT22;2310;49.978;8.742;2023-03-29T03:32:38;8.90;99.90
4596;DHT22;2310;49.978;8.742;2023-03-29T03:36:40;8.80;99.90
4596;DHT22;2310;49.978;8.742;2023-03-29T03:40:42;8.90;99.90
4596;DHT22;2310;49.978;8.742;2023-03-29T03:44:44;8.90;99.90
4596;DHT22;2310;49.978;8.742;2023-03-29T03:48:46;8.90;99.90
4596;DHT22;2310;49.978;8.742;2023-03-29T03:52:48;8.90;99.90
4596;DHT22;2310;49.978;8.742;2023-03-29T03:56:50;8.90;99.90
4596;DHT22;2310;49.978;8.742;2023-03-29T04:00:53;8.90;99.90
4596;DHT22;2310;49.978;8.742;2023-03-29T04:04:55;8.90;99.90
4596;DHT22;2310;49.978;8.742;2023-03-29T04:08:56;8.80;99.90
4596;DHT22;2310;49.978;8.742;2023-03-29T04:12:59;8.90;99.90
4596;DHT22;2310;49.978;8.742;2023-03-29T04:17:02;8.90;99.90
4596;DHT22;2310;49.978;8.742;2023-03-29T04:21:04;9.00;99.90
4596;DHT22;2310;49.978;8.742;2023-03-29T04:25:07;8.90;99.90
4596;DHT22;2310;49.978;8.742;2023-03-29T04:29:10;8.80;99.90
4596;DHT22;2310;49.978;8.742;2023-03-29T04:33:12;8.80;99.90
4596;DHT22;2310;49.978;8.742;2023-03-29T04:37:14;8.70;99.90
4596;DHT22;2310;49.978;8.742;2023-03-29T04:41:18;8.70;99.90
4596;DHT22;2310;49.978;8.742;2023-03-29T04:45:20;8.80;99.90
4596;DHT22;2310;49.978;8.742;2023-03-29T04:49:22;8.70;99.90
4596;DHT22;2310;49.978;8.742;2023-03-29T04:53:26;8.70;99.90
4596;DHT22;2310;49.978;8.742;2023-03-29T04:57:29;8.80;99.90
4596;DHT22;2310;49.978;8.742;2023-03-29T05:01:31;8.80;99.90
4596;DHT22;2310;49.978;8.742;2023-03-29T05:05:33;8.90;99.90
4596;DHT22;2310;49.978;8.742;2023-03-29T05:09:34;8.90;99.90
4596;DHT22;2310;49.978;8.742;2023-03-29T05:13:36;9.00;99.90
4596;DHT22;2310;49.978;8.742;2023-03-29T05:17:38;8.90;99.90
4596;DHT22;2310;49.978;8.742;2023-03-29T05:21:41;8.80;99.90
4596;DHT22;2310;49.978;8.742;2023-03-29T05:25:46;8.90;99.90
4596;DHT22;2310;49.978;8.742;2023-03-29T05:29:49;9.00;99.90
4596;DHT22;2310;49.978;8.742;2023-03-29T05:33:50;8.90;99.90
4596;DHT22;2310;49.978;8.742;2023-03-29T05:37:52;8.90;99.90
4596;DHT22;2310;49.978;8.742;2023-03-29T05:41:53;9.00;99.90
4596;DHT22;2310;49.978;8.742;2023-03-29T05:45:55;9.10;99.90
4596;DHT22;2310;49.978;8.742;2023-03-29T05:49:56;9.20;99.90
4596;DHT22;2310;49.978;8.742;2023-03-29T05:53:57;9.10;99.90
4596;DHT22;2310;49.978;8.742;2023-03-29T05:57:59;9.20;99.90
4596;DHT22;2310;49.978;8.742;2023-03-29T06:02:01;9.30;99.90
4596;DHT22;2310;49.978;8.742;2023-03-29T06:06:04;9.40;99.90
4596;DHT22;2310;49.978;8.742;2023-03-29T06:10:06;9.50;99.90
4596;DHT22;2310;49.978;8.742;2023-03-29T06:14:09;9.60;99.90
4596;DHT22;2310;49.978;8.742;2023-03-29T06:18:10;9.60;99.90
4596;DHT22;2310;49.978;8.742;2023-03-29T06:22:12;9.70;99.90
4596;DHT22;2310;49.978;8.742;2023-03-29T06:26:15;9.90;99.90
4596;DHT22;2310;49.978;8.742;2023-03-29T06:30:17;9.90;99.90
4596;DHT22;2310;49.978;8.742;2023-03-29T06:34:19;10.10;99.90
4596;DHT22;2310;49.978;8.742;2023-03-29T06:38:21;10.40;99.90
4596;DHT22;2310;49.978;8.742;2023-03-29T06:42:22;10.60;99.90
4596;DHT22;2310;49.978;8.742;2023-03-29T06:46:24;10.70;99.90
4596;DHT22;2310;49.978;8.742;2023-03-29T06:50:25;10.70;99.90
4596;DHT22;2310;49.978;8.742;2023-03-29T06:54:27;10.80;99.90
4596;DHT22;2310;49.978;8.742;2023-03-29T06:58:28;11.00;99.90
4596;DHT22;2310;49.978;8.742;2023-03-29T07:02:29;11.00;99.90
4596;DHT22;2310;49.978;8.742;2023-03-29T07:06:31;10.80;99.90
4596;DHT22;2310;49.978;8.742;2023-03-29T07:10:39;10.80;99.90
4596;DHT22;2310;49.978;8.742;2023-03-29T07:14:42;10.70;99.90
4596;DHT22;2310;49.978;8.742;2023-03-29T07:18:45;11.00;99.90
4596;DHT22;2310;49.978;8.742;2023-03-29T07:22:48;11.00;99.90
4596;DHT22;2310;49.978;8.742;2023-03-29T07:26:51;11.00;99.90
4596;DHT22;2310;49.978;8.742;2023-03-29T07:31:06;10.90;99.90
4596;DHT22;2310;49.978;8.742;2023-03-29T07:35:11;11.00;99.90
4596;DHT22;2310;49.978;8.742;2023-03-29T07:39:15;11.20;99.90
4596;DHT22;2310;49.978;8.742;2023-03-29T07:43:17;11.30;99.90
4596;DHT22;2310;49.978;8.742;2023-03-29T07:47:19;11.30;99.90
4596;DHT22;2310;49.978;8.742;2023-03-29T07:51:21;11.50;99.90
4596;DHT22;2310;49.978;8.742;2023-03-29T07:55:23;11.70;99.90
4596;DHT22;2310;49.978;8.742;2023-03-29T07:59:24;11.80;99.90
4596;DHT22;2310;49.978;8.742;2023-03-29T08:03:27;11.80;99.90
4596;DHT22;2310;49.978;8.742;2023-03-29T08:07:29;12.00;99.90
4596;DHT22;2310;49.978;8.742;2023-03-29T08:11:30;12.10;99.90
4596;DHT22;2310;49.978;8.742;2023-03-29T08:15:34;12.00;99.90
4596;DHT22;2310;49.978;8.742;2023-03-29T08:19:38;12.20;99.90
4596;DHT22;2310;49.978;8.742;2023-03-29T08:23:39;12.20;99.90
4596;DHT22;2310;49.978;8.742;2023-03-29T08:27:41;12.30;99.90
4596;DHT22;2310;49.978;8.742;2023-03-29T08:31:42;12.60;99.90
4596;DHT22;2310;49.978;8.742;2023-03-29T08:35:44;12.80;99.90
4596;DHT22;2310;49.978;8.742;2023-03-29T08:39:45;13.00;99.90
4596;DHT22;2310;49.978;8.742;2023-03-29T08:48:24;13.10;99.90
4596;DHT22;2310;49.978;8.742;2023-03-29T08:56:35;13.40;99.90
4596;DHT22;2310;49.978;8.742;2023-03-29T09:00:46;13.40;99.90
4596;DHT22;2310;49.978;8.742;2023-03-29T09:04:50;13.70;99.90
4596;DHT22;2310;49.978;8.742;2023-03-29T09:08:53;14.10;99.90
4596;DHT22;2310;49.978;8.742;2023-03-29T09:13:18;14.50;99.90
4596;DHT22;2310;49.978;8.742;2023-03-29T09:26:08;15.00;91.80
4596;DHT22;2310;49.978;8.742;2023-03-29T09:30:13;15.10;94.30
4596;DHT22;2310;49.978;8.742;2023-03-29T09:34:22;14.80;92.40
4596;DHT22;2310;49.978;8.742;2023-03-29T09:38:24;14.80;95.10
4596;DHT22;2310;49.978;8.742;2023-03-29T09:42:27;14.90;95.40
4596;DHT22;2310;49.978;8.742;2023-03-29T09:46:34;14.80;97.70
4596;DHT22;2310;49.978;8.742;2023-03-29T09:50:38;14.70;98.30
4596;DHT22;2310;49.978;8.742;2023-03-29T09:54:40;14.50;98.40
4596;DHT22;2310;49.978;8.742;2023-03-29T09:58:44;14.70;99.90
4596;DHT22;2310;49.978;8.742;2023-03-29T10:02:51;15.00;98.40
4596;DHT22;2310;49.978;8.742;2023-03-29T10:06:57;15.10;99.10
4596;DHT22;2310;49.978;8.742;2023-03-29T10:10:59;15.20;98.40
4596;DHT22;2310;49.978;8.742;2023-03-29T10:15:11;15.40;99.10
4596;DHT22;2310;49.978;8.742;2023-03-29T10:19:28;15.30;99.90
4596;DHT22;2310;49.978;8.742;2023-03-29T10:23:34;15.20;99.90
4596;DHT22;2310;49.978;8.742;2023-03-29T10:27:39;15.30;98.30
4596;DHT22;2310;49.978;8.742;2023-03-29T10:31:41;15.70;99.90
4596;DHT22;2310;49.978;8.742;2023-03-29T10:35:43;16.00;98.10
4596;DHT22;2310;49.978;8.742;2023-03-29T10:39:47;15.80;97.80
4596;DHT22;2310;49.978;8.742;2023-03-29T10:43:49;16.10;97.10
4596;DHT22;2310;49.978;8.742;2023-03-29T10:47:54;16.10;96.60
4596;DHT22;2310;49.978;8.742;2023-03-29T10:51:56;16.00;97.70
4596;DHT22;2310;49.978;8.742;2023-03-29T11:05:00;16.60;95.20
4596;DHT22;2310;49.978;8.742;2023-03-29T11:21:53;17.20;93.80
4596;DHT22;2310;49.978;8.742;2023-03-29T11:42:57;18.00;92.30
4596;DHT22;2310;49.978;8.742;2023-03-29T11:47:09;18.00;93.70
4596;DHT22;2310;49.978;8.742;2023-03-29T11:51:21;18.10;93.70
4596;DHT22;2310;49.978;8.742;2023-03-29T11:55:36;18.20;95.20
4596;DHT22;2310;49.978;8.742;2023-03-29T11:59:47;18.20;96.30
4596;DHT22;2310;49.978;8.742;2023-03-29T12:03:50;18.10;95.60
4596;DHT22;2310;49.978;8.742;2023-03-29T12:08:02;17.90;97.50
4596;DHT22;2310;49.978;8.742;2023-03-29T12:20:34;18.50;95.90
4596;DHT22;2310;49.978;8.742;2023-03-29T12:24:39;19.30;96.60
4596;DHT22;2310;49.978;8.742;2023-03-29T12:33:47;18.70;92.90
4596;DHT22;2310;49.978;8.742;2023-03-29T12:38:12;19.00;95.00
4596;DHT22;2310;49.978;8.742;2023-03-29T12:42:15;18.50;96.30
4596;DHT22;2310;49.978;8.742;2023-03-29T12:46:29;17.70;99.90
4596;DHT22;2310;49.978;8.742;2023-03-29T12:50:41;17.90;99.90
4596;DHT22;2310;49.978;8.742;2023-03-29T12:54:51;17.80;99.80
4596;DHT22;2310;49.978;8.742;2023-03-29T12:59:16;18.10;99.90
4596;DHT22;2310;49.978;8.742;2023-03-29T13:03:18;18.60;99.70
4596;DHT22;2310;49.978;8.742;2023-03-29T13:07:14;18.60;97.60
4596;DHT22;2310;49.978;8.742;2023-03-29T13:11:38;18.80;96.50
4596;DHT22;2310;49.978;8.742;2023-03-29T13:15:42;18.70;95.80
4596;DHT22;2310;49.978;8.742;2023-03-29T13:24:28;18.90;96.40
4596;DHT22;2310;49.978;8.742;2023-03-29T13:28:54;19.10;94.40
4596;DHT22;2310;49.978;8.742;2023-03-29T13:37:38;19.30;92.20
4596;DHT22;2310;49.978;8.742;2023-03-29T13:45:42;19.50;99.90
4596;DHT22;2310;49.978;8.742;2023-03-29T13:49:48;19.40;93.10
4596;DHT22;2310;49.978;8.742;2023-03-29T13:53:57;19.50;91.00
4596;DHT22;2310;49.978;8.742;2023-03-29T13:58:13;19.60;86.70
4596;DHT22;2310;49.978;8.742;2023-03-29T14:02:35;19.40;83.40
4596;DHT22;2310;49.978;8.742;2023-03-29T14:06:35;19.20;86.10
4596;DHT22;2310;49.978;8.742;2023-03-29T14:10:43;19.10;83.50
4596;DHT22;2310;49.978;8.742;2023-03-29T14:14:45;19.00;86.90
4596;DHT22;2310;49.978;8.742;2023-03-29T14:18:48;18.80;83.00
4596;DHT22;2310;49.978;8.742;2023-03-29T14:22:51;19.00;85.10
4596;DHT22;2310;49.978;8.742;2023-03-29T14:26:53;18.90;82.60
4596;DHT22;2310;49.978;8.742;2023-03-29T14:30:55;18.80;83.60
4596;DHT22;2310;49.978;8.742;2023-03-29T14:34:56;19.10;89.20
4596;DHT22;2310;49.978;8.742;2023-03-29T14:39:04;19.20;84.90
4596;DHT22;2310;49.978;8.742;2023-03-29T14:43:06;19.00;87.20
4596;DHT22;2310;49.978;8.742;2023-03-29T14:47:14;18.90;85.70
4596;DHT22;2310;49.978;8.742;2023-03-29T14:51:13;18.90;88.80
4596;DHT22;2310;49.978;8.742;2023-03-29T14:55:15;18.80;88.50
4596;DHT22;2310;49.978;8.742;2023-03-29T14:59:36;19.10;86.50
4596;DHT22;2310;49.978;8.742;2023-03-29T15:03:42;19.20;89.40
4596;DHT22;2310;49.978;8.742;2023-03-29T15:07:43;19.00;90.00
4596;DHT22;2310;49.978;8.742;2023-03-29T15:11:54;19.10;99.90
4596;DHT22;2310;49.978;8.742;2023-03-29T15:15:58;19.20;95.00
4596;DHT22;2310;49.978;8.742;2023-03-29T15:20:12;19.30;90.00
4596;DHT22;2310;49.978;8.742;2023-03-29T15:24:29;19.20;93.20
4596;DHT22;2310;49.978;8.742;2023-03-29T15:28:33;19.00;92.80
4596;DHT22;2310;49.978;8.742;2023-03-29T15:32:34;18.90;92.70
4596;DHT22;2310;49.978;8.742;2023-03-29T15:36:42;18.90;94.30
4596;DHT22;2310;49.978;8.742;2023-03-29T15:40:47;18.90;99.90
4596;DHT22;2310;49.978;8.742;2023-03-29T15:44:54;19.20;99.90
4596;DHT22;2310;49.978;8.742;2023-03-29T15:48:56;19.30;99.00
4596;DHT22;2310;49.978;8.742;2023-03-29T15:52:57;19.50;97.80
4596;DHT22;2310;49.978;8.742;2023-03-29T15:57:04;19.60;96.70
4596;DHT22;2310;49.978;8.742;2023-03-29T16:01:15;19.60;98.40
4596;DHT22;2310;49.978;8.742;2023-03-29T16:05:16;19.70;97.60
4596;DHT22;2310;49.978;8.742;2023-03-29T16:09:19;19.10;98.10
4596;DHT22;2310;49.978;8.742;2023-03-29T16:13:21;19.10;98.80
4596;DHT22;2310;49.978;8.742;2023-03-29T16:17:22;18.90;99.90
4596;DHT22;2310;49.978;8.742;2023-03-29T16:21:23;18.70;99.90
4596;DHT22;2310;49.978;8.742;2023-03-29T16:25:24;18.60;99.90
4596;DHT22;2310;49.978;8.742;2023-03-29T16:29:26;18.60;99.90
4596;DHT22;2310;49.978;8.742;2023-03-29T16:33:27;18.40;99.90
4596;DHT22;2310;49.978;8.742;2023-03-29T16:37:28;18.40;99.90
4596;DHT22;2310;49.978;8.742;2023-03-29T16:41:30;18.40;99.90
4596;DHT22;2310;49.978;8.742;2023-03-29T16:45:31;18.30;99.90
4596;DHT22;2310;49.978;8.742;2023-03-29T16:49:32;18.10;99.90
4596;DHT22;2310;49.978;8.742;2023-03-29T16:53:34;18.00;99.90
4596;DHT22;2310;49.978;8.742;2023-03-29T16:57:35;18.00;99.90
4596;DHT22;2310;49.978;8.742;2023-03-29T17:01:36;17.80;99.90
4596;DHT22;2310;49.978;8.742;2023-03-29T17:05:38;17.70;99.90
4596;DHT22;2310;49.978;8.742;2023-03-29T17:09:42;17.60;99.90
4596;DHT22;2310;49.978;8.742;2023-03-29T17:13:45;17.50;99.90
4596;DHT22;2310;49.978;8.742;2023-03-29T17:17:46;17.50;99.90
4596;DHT22;2310;49.978;8.742;2023-03-29T17:21:48;17.50;99.90
4596;DHT22;2310;49.978;8.742;2023-03-29T17:25:49;17.50;99.90
4596;DHT22;2310;49.978;8.742;2023-03-29T17:29:51;17.40;99.90
4596;DHT22;2310;49.978;8.742;2023-03-29T17:33:52;17.40;99.90
4596;DHT22;2310;49.978;8.742;2023-03-29T17:37:54;17.40;99.90
4596;DHT22;2310;49.978;8.742;2023-03-29T17:41:56;17.20;99.90
4596;DHT22;2310;49.978;8.742;2023-03-29T17:45:58;17.20;99.90
4596;DHT22;2310;49.978;8.742;2023-03-29T17:49:59;17.20;99.90
4596;DHT22;2310;49.978;8.742;2023-03-29T17:54:01;17.00;99.90
4596;DHT22;2310;49.978;8.742;2023-03-29T17:58:02;17.10;99.90
4596;DHT22;2310;49.978;8.742;2023-03-29T18:02:04;17.10;99.90
4596;DHT22;2310;49.978;8.742;2023-03-29T18:06:06;16.90;99.90
4596;DHT22;2310;49.978;8.742;2023-03-29T18:10:08;17.10;99.90
4596;DHT22;2310;49.978;8.742;2023-03-29T18:14:09;17.10;99.90
4596;DHT22;2310;49.978;8.742;2023-03-29T18:18:10;17.40;99.90
4596;DHT22;2310;49.978;8.742;2023-03-29T18:22:11;17.20;99.90
4596;DHT22;2310;49.978;8.742;2023-03-29T18:26:14;17.20;99.90
4596;DHT22;2310;49.978;8.742;2023-03-29T18:30:15;16.90;99.90
4596;DHT22;2310;49.978;8.742;2023-03-29T18:34:16;16.80;99.90
4596;DHT22;2310;49.978;8.742;2023-03-29T18:38:19;16.70;99.90
4596;DHT22;2310;49.978;8.742;2023-03-29T18:42:21;16.60;99.90
4596;DHT22;2310;49.978;8.742;2023-03-29T18:46:22;16.60;99.90
4596;DHT22;2310;49.978;8.742;2023-03-29T18:50:23;16.70;99.90
4596;DHT22;2310;49.978;8.742;2023-03-29T18:54:25;16.60;99.90
4596;DHT22;2310;49.978;8.742;2023-03-29T18:58:26;16.60;99.90
4596;DHT22;2310;49.978;8.742;2023-03-29T19:02:27;16.40;99.90
4596;DHT22;2310;49.978;8.742;2023-03-29T19:06:29;16.30;99.90
4596;DHT22;2310;49.978;8.742;2023-03-29T19:10:35;16.20;99.90
4596;DHT22;2310;49.978;8.742;2023-03-29T19:14:37;16.30;99.90
4596;DHT22;2310;49.978;8.742;2023-03-29T19:18:39;16.30;99.90
4596;DHT22;2310;49.978;8.742;2023-03-29T19:22:41;16.40;99.90
4596;DHT22;2310;49.978;8.742;2023-03-29T19:26:43;16.40;99.90
4596;DHT22;2310;49.978;8.742;2023-03-29T19:30:45;16.40;99.90
4596;DHT22;2310;49.978;8.742;2023-03-29T19:34:46;16.30;99.90
4596;DHT22;2310;49.978;8.742;2023-03-29T19:38:48;16.20;99.90
4596;DHT22;2310;49.978;8.742;2023-03-29T19:42:49;16.10;99.90
4596;DHT22;2310;49.978;8.742;2023-03-29T19:46:50;15.90;99.90
4596;DHT22;2310;49.978;8.742;2023-03-29T19:50:51;15.90;99.90
4596;DHT22;2310;49.978;8.742;2023-03-29T19:54:55;16.00;99.90
4596;DHT22;2310;49.978;8.742;2023-03-29T19:58:56;16.00;99.90
4596;DHT22;2310;49.978;8.742;2023-03-29T20:02:58;16.00;99.90
4596;DHT22;2310;49.978;8.742;2023-03-29T20:06:59;16.10;99.90
4596;DHT22;2310;49.978;8.742;2023-03-29T20:11:02;16.20;99.90
4596;DHT22;2310;49.978;8.742;2023-03-29T20:15:04;16.20;99.90
4596;DHT22;2310;49.978;8.742;2023-03-29T20:19:06;16.20;99.90
4596;DHT22;2310;49.978;8.742;2023-03-29T20:23:07;16.20;99.90
4596;DHT22;2310;49.978;8.742;2023-03-29T20:27:09;16.10;99.90
4596;DHT22;2310;49.978;8.742;2023-03-29T20:31:11;16.00;99.90
4596;DHT22;2310;49.978;8.742;2023-03-29T20:35:13;16.00;99.90
4596;DHT22;2310;49.978;8.742;2023-03-29T20:39:14;16.00;99.90
4596;DHT22;2310;49.978;8.742;2023-03-29T20:43:18;15.90;99.90
4596;DHT22;2310;49.978;8.742;2023-03-29T20:47:20;15.90;99.90
4596;DHT22;2310;49.978;8.742;2023-03-29T20:51:23;15.90;99.90
4596;DHT22;2310;49.978;8.742;2023-03-29T20:55:26;15.90;99.90
4596;DHT22;2310;49.978;8.742;2023-03-29T20:59:29;15.70;99.90
4596;DHT22;2310;49.978;8.742;2023-03-29T21:03:30;15.50;99.90
4596;DHT22;2310;49.978;8.742;2023-03-29T21:07:32;15.40;99.90
4596;DHT22;2310;49.978;8.742;2023-03-29T21:11:33;15.40;99.90
4596;DHT22;2310;49.978;8.742;2023-03-29T21:15:34;15.50;99.90
4596;DHT22;2310;49.978;8.742;2023-03-29T21:19:37;15.40;99.90
4596;DHT22;2310;49.978;8.742;2023-03-29T21:23:39;15.50;99.90
4596;DHT22;2310;49.978;8.742;2023-03-29T21:27:41;15.30;99.90
4596;DHT22;2310;49.978;8.742;2023-03-29T21:31:42;15.20;99.90
4596;DHT22;2310;49.978;8.742;2023-03-29T21:35:46;15.10;99.90
4596;DHT22;2310;49.978;8.742;2023-03-29T21:39:48;15.10;99.90
4596;DHT22;2310;49.978;8.742;2023-03-29T21:43:49;15.10;99.90
4596;DHT22;2310;49.978;8.742;2023-03-29T21:47:50;15.10;99.90
4596;DHT22;2310;49.978;8.742;2023-03-29T21:51:51;15.10;99.90
4596;DHT22;2310;49.978;8.742;2023-03-29T21:55:53;15.00;99.90
4596;DHT22;2310;49.978;8.742;2023-03-29T21:59:54;14.90;99.90
4596;DHT22;2310;49.978;8.742;2023-03-29T22:03:55;15.00;99.90
4596;DHT22;2310;49.978;8.742;2023-03-29T22:07:57;15.10;99.90
4596;DHT22;2310;49.978;8.742;2023-03-29T22:11:58;15.00;99.90
4596;DHT22;2310;49.978;8.742;2023-03-29T22:16:02;15.00;99.90
4596;DHT22;2310;49.978;8.742;2023-03-29T22:20:04;14.90;99.90
4596;DHT22;2310;49.978;8.742;2023-03-29T22:24:15;15.00;99.90
4596;DHT22;2310;49.978;8.742;2023-03-29T22:28:16;14.90;99.90
4596;DHT22;2310;49.978;8.742;2023-03-29T22:32:17;14.70;99.90
4596;DHT22;2310;49.978;8.742;2023-03-29T22:36:22;14.60;99.90
4596;DHT22;2310;49.978;8.742;2023-03-29T22:40:23;14.60;99.90
4596;DHT22;2310;49.978;8.742;2023-03-29T22:44:24;14.70;99.90
4596;DHT22;2310;49.978;8.742;2023-03-29T22:48:26;14.50;99.90
4596;DHT22;2310;49.978;8.742;2023-03-29T22:52:28;14.40;99.90
4596;DHT22;2310;49.978;8.742;2023-03-29T22:56:29;14.50;99.90
4596;DHT22;2310;49.978;8.742;2023-03-29T23:00:30;14.50;99.90
4596;DHT22;2310;49.978;8.742;2023-03-29T23:04:32;14.60;99.90
4596;DHT22;2310;49.978;8.742;2023-03-29T23:08:33;14.60;99.90
4596;DHT22;2310;49.978;8.742;2023-03-29T23:12:35;14.70;99.90
4596;DHT22;2310;49.978;8.742;2023-03-29T23:16:36;14.80;99.90
4596;DHT22;2310;49.978;8.742;2023-03-29T23:20:38;14.80;99.90
4596;DHT22;2310;49.978;8.742;2023-03-29T23:24:40;14.90;99.90
4596;DHT22;2310;49.978;8.742;2023-03-29T23:28:43;15.10;99.90
4596;DHT22;2310;49.978;8.742;2023-03-29T23:32:44;15.20;99.90
4596;DHT22;2310;49.978;8.742;2023-03-29T23:36:46;15.30;99.90
4596;DHT22;2310;49.978;8.742;2023-03-29T23:40:57;15.50;99.90
4596;DHT22;2310;49.978;8.742;2023-03-29T23:44:54;15.60;99.90
4596;DHT22;2310;49.978;8.742;2023-03-29T23:48:56;15.70;99.90
4596;DHT22;2310;49.978;8.742;2023-03-29T23:52:58;15.80;99.90
4596;DHT22;2310;49.978;8.742;2023-03-29T23:56:59;15.90;99.90
